sensor_id;sensor_type;location;lat;lon;timestamp;P1;durP1;ratioP1;P2;durP2;ratioP2
48791;SDS011;34587;48.816;9.420;2023-03-12T00:01:54;0.70;;;0.70;;
48791;SDS011;34587;48.816;9.420;2023-03-12T00:04:19;1.08;;;1.08;;
48791;SDS011;34587;48.816;9.420;2023-03-12T00:06:44;4.50;;;1.20;;
48791;SDS011;34587;48.816;9.420;2023-03-12T00:09:10;1.33;;;1.33;;
48791;SDS011;34587;48.816;9.420;2023-03-12T00:11:35;0.90;;;0.90;;
48791;SDS011;34587;48.816;9.420;2023-03-12T00:14:00;1.33;;;1.33;;
48791;SDS011;34587;48.816;9.420;2023-03-12T00:16:26;0.90;;;0.90;;
48791;SDS011;34587;48.816;9.420;2023-03-12T00:18:52;2.20;;;1.85;;
48791;SDS011;34587;48.816;9.420;2023-03-12T00:21:19;1.17;;;1.17;;
48791;SDS011;34587;48.816;9.420;2023-03-12T00:23:46;1.63;;;1.52;;
48791;SDS011;34587;48.816;9.420;2023-03-12T00:26:12;0.85;;;0.85;;
48791;SDS011;34587;48.816;9.420;2023-03-12T00:28:38;0.70;;;0.70;;
48791;SDS011;34587;48.816;9.420;2023-03-12T00:31:18;1.08;;;1.08;;
48791;SDS011;34587;48.816;9.420;2023-03-12T00:33:46;1.77;;;1.67;;
48791;SDS011;34587;48.816;9.420;2023-03-12T00:36:16;0.93;;;0.93;;
48791;SDS011;34587;48.816;9.420;2023-03-12T00:38:42;0.90;;;0.90;;
48791;SDS011;34587;48.816;9.420;2023-03-12T00:41:08;0.70;;;0.70;;
48791;SDS011;34587;48.816;9.420;2023-03-12T00:43:33;1.65;;;1.65;;
48791;SDS011;34587;48.816;9.420;2023-03-12T00:45:58;0.77;;;0.77;;
48791;SDS011;34587;48.816;9.420;2023-03-12T00:48:24;1.27;;;1.27;;
48791;SDS011;34587;48.816;9.420;2023-03-12T00:50:49;0.90;;;0.90;;
48791;SDS011;34587;48.816;9.420;2023-03-12T00:53:15;1.33;;;1.27;;
48791;SDS011;34587;48.816;9.420;2023-03-12T00:55:40;1.27;;;1.27;;
48791;SDS011;34587;48.816;9.420;2023-03-12T00:58:05;0.90;;;0.90;;
48791;SDS011;34587;48.816;9.420;2023-03-12T05:46:29;0.77;;;0.77;;
48791;SDS011;34587;48.816;9.420;2023-03-12T05:48:54;0.90;;;0.90;;
48791;SDS011;34587;48.816;9.420;2023-03-12T05:51:19;0.80;;;0.80;;
48791;SDS011;34587;48.816;9.420;2023-03-12T05:53:45;0.80;;;0.80;;
48791;SDS011;34587;48.816;9.420;2023-03-12T05:56:12;0.80;;;0.80;;
48791;SDS011;34587;48.816;9.420;2023-03-12T05:58:39;0.70;;;0.70;;
48791;SDS011;34587;48.816;9.420;2023-03-12T06:01:11;0.88;;;0.88;;
48791;SDS011;34587;48.816;9.420;2023-03-12T06:03:39;0.60;;;0.60;;
48791;SDS011;34587;48.816;9.420;2023-03-12T06:06:04;1.15;;;1.15;;
48791;SDS011;34587;48.816;9.420;2023-03-12T06:08:29;0.73;;;0.73;;
48791;SDS011;34587;48.816;9.420;2023-03-12T06:10:55;1.83;;;1.70;;
48791;SDS011;34587;48.816;9.420;2023-03-12T06:13:20;1.10;;;1.10;;
48791;SDS011;34587;48.816;9.420;2023-03-12T06:15:46;0.80;;;0.80;;
48791;SDS011;34587;48.816;9.420;2023-03-12T06:18:12;0.90;;;0.90;;
48791;SDS011;34587;48.816;9.420;2023-03-12T06:20:38;1.23;;;1.23;;
48791;SDS011;34587;48.816;9.420;2023-03-12T06:23:03;0.90;;;0.90;;
48791;SDS011;34587;48.816;9.420;2023-03-12T06:25:28;0.90;;;0.90;;
48791;SDS011;34587;48.816;9.420;2023-03-12T06:27:54;0.63;;;0.63;;
48791;SDS011;34587;48.816;9.420;2023-03-12T06:30:19;0.70;;;0.70;;
48791;SDS011;34587;48.816;9.420;2023-03-12T06:32:44;0.90;;;0.90;;
48791;SDS011;34587;48.816;9.420;2023-03-12T06:35:09;1.63;;;1.17;;
48791;SDS011;34587;48.816;9.420;2023-03-12T06:37:35;0.60;;;0.60;;
48791;SDS011;34587;48.816;9.420;2023-03-12T06:40:00;1.83;;;1.73;;
48791;SDS011;34587;48.816;9.420;2023-03-12T06:42:26;2.05;;;1.80;;
48791;SDS011;34587;48.816;9.420;2023-03-12T06:44:51;0.98;;;0.98;;
48791;SDS011;34587;48.816;9.420;2023-03-12T06:47:17;1.10;;;1.10;;
48791;SDS011;34587;48.816;9.420;2023-03-12T06:49:42;0.88;;;0.88;;
48791;SDS011;34587;48.816;9.420;2023-03-12T06:52:08;1.15;;;1.15;;
48791;SDS011;34587;48.816;9.420;2023-03-12T06:54:34;1.65;;;1.58;;
48791;SDS011;34587;48.816;9.420;2023-03-12T06:56:59;1.13;;;1.08;;
48791;SDS011;34587;48.816;9.420;2023-03-12T06:59:25;1.75;;;1.65;;
48791;SDS011;34587;48.816;9.420;2023-03-12T07:01:50;0.90;;;0.90;;
48791;SDS011;34587;48.816;9.420;2023-03-12T07:04:15;1.08;;;1.08;;
48791;SDS011;34587;48.816;9.420;2023-03-12T07:06:41;0.90;;;0.90;;
48791;SDS011;34587;48.816;9.420;2023-03-12T07:09:07;0.75;;;0.75;;
48791;SDS011;34587;48.816;9.420;2023-03-12T07:11:32;0.80;;;0.80;;
48791;SDS011;34587;48.816;9.420;2023-03-12T07:13:57;0.88;;;0.88;;
48791;SDS011;34587;48.816;9.420;2023-03-12T07:16:23;1.15;;;1.15;;
48791;SDS011;34587;48.816;9.420;2023-03-12T07:18:48;1.35;;;1.27;;
48791;SDS011;34587;48.816;9.420;2023-03-12T07:21:13;0.70;;;0.70;;
48791;SDS011;34587;48.816;9.420;2023-03-12T07:23:46;0.70;;;0.70;;
48791;SDS011;34587;48.816;9.420;2023-03-12T07:26:15;1.43;;;1.43;;
48791;SDS011;34587;48.816;9.420;2023-03-12T07:28:41;1.27;;;1.27;;
48791;SDS011;34587;48.816;9.420;2023-03-12T07:31:06;0.90;;;0.90;;
48791;SDS011;34587;48.816;9.420;2023-03-12T07:33:31;9.55;;;1.58;;
48791;SDS011;34587;48.816;9.420;2023-03-12T07:35:57;0.90;;;0.90;;
48791;SDS011;34587;48.816;9.420;2023-03-12T07:38:23;1.10;;;1.10;;
48791;SDS011;34587;48.816;9.420;2023-03-12T07:40:50;1.88;;;1.27;;
48791;SDS011;34587;48.816;9.420;2023-03-12T07:43:16;1.08;;;1.00;;
48791;SDS011;34587;48.816;9.420;2023-03-12T07:45:41;0.90;;;0.90;;
48791;SDS011;34587;48.816;9.420;2023-03-12T07:48:07;1.20;;;1.10;;
48791;SDS011;34587;48.816;9.420;2023-03-12T07:50:33;1.05;;;1.05;;
48791;SDS011;34587;48.816;9.420;2023-03-12T07:52:59;2.08;;;1.83;;
48791;SDS011;34587;48.816;9.420;2023-03-12T07:55:25;1.95;;;1.85;;
48791;SDS011;34587;48.816;9.420;2023-03-12T07:57:50;4.57;;;1.25;;
48791;SDS011;34587;48.816;9.420;2023-03-12T08:00:15;0.77;;;0.77;;
48791;SDS011;34587;48.816;9.420;2023-03-12T08:02:42;1.73;;;1.63;;
48791;SDS011;34587;48.816;9.420;2023-03-12T08:05:07;0.70;;;0.70;;
48791;SDS011;34587;48.816;9.420;2023-03-12T08:07:33;0.90;;;0.90;;
48791;SDS011;34587;48.816;9.420;2023-03-12T08:10:00;0.93;;;0.93;;
48791;SDS011;34587;48.816;9.420;2023-03-12T08:12:26;0.88;;;0.88;;
48791;SDS011;34587;48.816;9.420;2023-03-12T08:14:52;2.05;;;1.85;;
48791;SDS011;34587;48.816;9.420;2023-03-12T08:17:17;1.83;;;1.73;;
48791;SDS011;34587;48.816;9.420;2023-03-12T08:19:43;1.23;;;1.23;;
48791;SDS011;34587;48.816;9.420;2023-03-12T08:22:08;0.80;;;0.80;;
48791;SDS011;34587;48.816;9.420;2023-03-12T08:24:33;0.90;;;0.90;;
48791;SDS011;34587;48.816;9.420;2023-03-12T08:26:59;1.35;;;1.30;;
48791;SDS011;34587;48.816;9.420;2023-03-12T08:29:24;1.70;;;1.60;;
48791;SDS011;34587;48.816;9.420;2023-03-12T08:31:50;1.17;;;1.15;;
48791;SDS011;34587;48.816;9.420;2023-03-12T08:34:15;2.67;;;1.40;;
48791;SDS011;34587;48.816;9.420;2023-03-12T08:36:41;3.45;;;1.35;;
48791;SDS011;34587;48.816;9.420;2023-03-12T08:39:06;1.02;;;1.02;;
48791;SDS011;34587;48.816;9.420;2023-03-12T08:41:31;0.95;;;0.95;;
48791;SDS011;34587;48.816;9.420;2023-03-12T08:43:57;1.05;;;1.05;;
48791;SDS011;34587;48.816;9.420;2023-03-12T08:46:22;0.68;;;0.68;;
48791;SDS011;34587;48.816;9.420;2023-03-12T08:48:47;1.15;;;1.15;;
48791;SDS011;34587;48.816;9.420;2023-03-12T08:51:13;0.85;;;0.85;;
48791;SDS011;34587;48.816;9.420;2023-03-12T08:53:38;3.55;;;0.90;;
48791;SDS011;34587;48.816;9.420;2023-03-12T08:56:03;0.93;;;0.93;;
48791;SDS011;34587;48.816;9.420;2023-03-12T08:58:29;1.00;;;1.00;;
48791;SDS011;34587;48.816;9.420;2023-03-12T09:00:55;0.70;;;0.70;;
48791;SDS011;34587;48.816;9.420;2023-03-12T09:03:21;1.25;;;1.25;;
48791;SDS011;34587;48.816;9.420;2023-03-12T09:05:46;1.17;;;1.17;;
48791;SDS011;34587;48.816;9.420;2023-03-12T09:08:13;0.98;;;0.98;;
48791;SDS011;34587;48.816;9.420;2023-03-12T09:10:39;1.00;;;1.00;;
48791;SDS011;34587;48.816;9.420;2023-03-12T09:13:05;4.30;;;1.75;;
48791;SDS011;34587;48.816;9.420;2023-03-12T09:15:31;1.75;;;1.65;;
48791;SDS011;34587;48.816;9.420;2023-03-12T09:17:57;0.77;;;0.77;;
48791;SDS011;34587;48.816;9.420;2023-03-12T09:20:22;0.95;;;0.90;;
48791;SDS011;34587;48.816;9.420;2023-03-12T09:22:48;0.80;;;0.80;;
48791;SDS011;34587;48.816;9.420;2023-03-12T09:25:14;1.98;;;1.88;;
48791;SDS011;34587;48.816;9.420;2023-03-12T09:27:44;2.03;;;1.92;;
48791;SDS011;34587;48.816;9.420;2023-03-12T09:30:12;2.08;;;1.98;;
48791;SDS011;34587;48.816;9.420;2023-03-12T09:32:42;1.60;;;1.52;;
48791;SDS011;34587;48.816;9.420;2023-03-12T09:35:09;0.82;;;0.82;;
48791;SDS011;34587;48.816;9.420;2023-03-12T09:37:35;1.25;;;1.15;;
48791;SDS011;34587;48.816;9.420;2023-03-12T09:40:00;0.88;;;0.88;;
48791;SDS011;34587;48.816;9.420;2023-03-12T09:42:32;1.30;;;1.30;;
48791;SDS011;34587;48.816;9.420;2023-03-12T09:45:22;1.42;;;1.40;;
48791;SDS011;34587;48.816;9.420;2023-03-12T09:47:59;1.10;;;1.10;;
48791;SDS011;34587;48.816;9.420;2023-03-12T09:55:57;2.78;;;2.58;;
48791;SDS011;34587;48.816;9.420;2023-03-12T09:58:30;2.42;;;1.85;;
48791;SDS011;34587;48.816;9.420;2023-03-12T10:01:03;6.65;;;1.88;;
48791;SDS011;34587;48.816;9.420;2023-03-12T10:03:55;1.67;;;1.58;;
48791;SDS011;34587;48.816;9.420;2023-03-12T10:06:25;3.63;;;2.13;;
48791;SDS011;34587;48.816;9.420;2023-03-12T10:11:40;2.50;;;2.30;;
48791;SDS011;34587;48.816;9.420;2023-03-12T10:14:38;3.15;;;2.47;;
48791;SDS011;34587;48.816;9.420;2023-03-12T10:28:45;2.60;;;2.40;;
48791;SDS011;34587;48.816;9.420;2023-03-12T10:31:18;2.95;;;2.10;;
48791;SDS011;34587;48.816;9.420;2023-03-12T10:34:10;3.10;;;2.88;;
48791;SDS011;34587;48.816;9.420;2023-03-12T10:36:41;2.42;;;2.22;;
48791;SDS011;34587;48.816;9.420;2023-03-12T10:39:14;5.13;;;3.40;;
48791;SDS011;34587;48.816;9.420;2023-03-12T10:41:41;2.67;;;2.35;;
48791;SDS011;34587;48.816;9.420;2023-03-12T10:44:10;6.90;;;3.90;;
48791;SDS011;34587;48.816;9.420;2023-03-12T10:49:29;5.55;;;2.28;;
48791;SDS011;34587;48.816;9.420;2023-03-12T10:52:01;2.92;;;2.28;;
48791;SDS011;34587;48.816;9.420;2023-03-12T10:54:31;2.50;;;2.03;;
48791;SDS011;34587;48.816;9.420;2023-03-12T10:57:01;6.30;;;3.92;;
48791;SDS011;34587;48.816;9.420;2023-03-12T10:59:28;1.38;;;1.35;;
48791;SDS011;34587;48.816;9.420;2023-03-12T11:01:56;1.67;;;1.58;;
48791;SDS011;34587;48.816;9.420;2023-03-12T11:04:31;3.05;;;1.88;;
48791;SDS011;34587;48.816;9.420;2023-03-12T11:09:28;2.00;;;1.48;;
48791;SDS011;34587;48.816;9.420;2023-03-12T11:11:53;1.88;;;1.77;;
48791;SDS011;34587;48.816;9.420;2023-03-12T11:16:51;2.22;;;1.58;;
48791;SDS011;34587;48.816;9.420;2023-03-12T11:19:30;4.10;;;2.88;;
48791;SDS011;34587;48.816;9.420;2023-03-12T11:22:02;4.00;;;2.70;;
48791;SDS011;34587;48.816;9.420;2023-03-12T11:24:29;4.28;;;1.27;;
48791;SDS011;34587;48.816;9.420;2023-03-12T11:27:04;2.00;;;1.90;;
48791;SDS011;34587;48.816;9.420;2023-03-12T11:29:42;2.35;;;1.60;;
48791;SDS011;34587;48.816;9.420;2023-03-12T11:32:14;2.55;;;0.90;;
48791;SDS011;34587;48.816;9.420;2023-03-12T11:34:44;1.55;;;1.20;;
48791;SDS011;34587;48.816;9.420;2023-03-12T11:45:27;0.50;;;0.50;;
48791;SDS011;34587;48.816;9.420;2023-03-12T11:54:03;1.77;;;1.48;;
48791;SDS011;34587;48.816;9.420;2023-03-12T11:56:50;0.88;;;0.88;;
48791;SDS011;34587;48.816;9.420;2023-03-12T12:05:08;0.47;;;0.47;;
48791;SDS011;34587;48.816;9.420;2023-03-12T12:07:58;0.90;;;0.47;;
48791;SDS011;34587;48.816;9.420;2023-03-12T12:13:04;0.38;;;0.38;;
48791;SDS011;34587;48.816;9.420;2023-03-12T12:21:13;0.32;;;0.32;;
48791;SDS011;34587;48.816;9.420;2023-03-12T12:35:46;0.32;;;0.32;;
48791;SDS011;34587;48.816;9.420;2023-03-12T12:38:17;0.40;;;0.40;;
48791;SDS011;34587;48.816;9.420;2023-03-12T12:40:54;0.70;;;0.70;;
48791;SDS011;34587;48.816;9.420;2023-03-12T12:43:38;0.40;;;0.40;;
48791;SDS011;34587;48.816;9.420;2023-03-12T12:48:56;0.82;;;0.82;;
48791;SDS011;34587;48.816;9.420;2023-03-12T12:51:29;1.05;;;0.90;;
48791;SDS011;34587;48.816;9.420;2023-03-12T12:54:04;0.57;;;0.57;;
48791;SDS011;34587;48.816;9.420;2023-03-12T12:56:44;0.82;;;0.35;;
48791;SDS011;34587;48.816;9.420;2023-03-12T13:01:57;0.77;;;0.50;;
48791;SDS011;34587;48.816;9.420;2023-03-12T13:04:26;0.30;;;0.30;;
48791;SDS011;34587;48.816;9.420;2023-03-12T13:06:57;0.30;;;0.30;;
48791;SDS011;34587;48.816;9.420;2023-03-12T13:09:35;0.40;;;0.40;;
48791;SDS011;34587;48.816;9.420;2023-03-12T13:12:46;1.77;;;0.52;;
48791;SDS011;34587;48.816;9.420;2023-03-12T13:14:49;0.40;;;0.40;;
48791;SDS011;34587;48.816;9.420;2023-03-12T13:17:21;0.47;;;0.47;;
48791;SDS011;34587;48.816;9.420;2023-03-12T13:19:50;1.00;;;1.00;;
48791;SDS011;34587;48.816;9.420;2023-03-12T13:24:52;2.55;;;0.45;;
48791;SDS011;34587;48.816;9.420;2023-03-12T13:27:29;0.73;;;0.63;;
48791;SDS011;34587;48.816;9.420;2023-03-12T13:30:13;3.30;;;0.82;;
48791;SDS011;34587;48.816;9.420;2023-03-12T13:35:30;0.50;;;0.50;;
48791;SDS011;34587;48.816;9.420;2023-03-12T13:38:01;9.32;;;0.70;;
48791;SDS011;34587;48.816;9.420;2023-03-12T13:43:01;0.40;;;0.40;;
48791;SDS011;34587;48.816;9.420;2023-03-12T13:45:54;0.40;;;0.40;;
48791;SDS011;34587;48.816;9.420;2023-03-12T13:48:19;0.40;;;0.40;;
48791;SDS011;34587;48.816;9.420;2023-03-12T13:50:50;0.70;;;0.70;;
48791;SDS011;34587;48.816;9.420;2023-03-12T13:53:27;0.63;;;0.63;;
48791;SDS011;34587;48.816;9.420;2023-03-12T13:55:59;0.40;;;0.40;;
48791;SDS011;34587;48.816;9.420;2023-03-12T13:58:28;0.30;;;0.30;;
48791;SDS011;34587;48.816;9.420;2023-03-12T14:01:04;1.75;;;0.60;;
48791;SDS011;34587;48.816;9.420;2023-03-12T14:03:38;0.40;;;0.40;;
48791;SDS011;34587;48.816;9.420;2023-03-12T14:06:16;0.50;;;0.50;;
48791;SDS011;34587;48.816;9.420;2023-03-12T14:11:16;0.75;;;0.75;;
48791;SDS011;34587;48.816;9.420;2023-03-12T14:16:54;0.55;;;0.55;;
48791;SDS011;34587;48.816;9.420;2023-03-12T14:19:26;1.05;;;0.93;;
48791;SDS011;34587;48.816;9.420;2023-03-12T14:21:54;0.40;;;0.40;;
48791;SDS011;34587;48.816;9.420;2023-03-12T14:24:26;0.82;;;0.82;;
48791;SDS011;34587;48.816;9.420;2023-03-12T14:26:53;6.85;;;1.92;;
48791;SDS011;34587;48.816;9.420;2023-03-12T14:29:31;0.30;;;0.30;;
48791;SDS011;34587;48.816;9.420;2023-03-12T14:32:03;0.40;;;0.40;;
48791;SDS011;34587;48.816;9.420;2023-03-12T14:34:32;0.60;;;0.60;;
48791;SDS011;34587;48.816;9.420;2023-03-12T14:37:23;1.85;;;1.33;;
48791;SDS011;34587;48.816;9.420;2023-03-12T14:39:54;0.95;;;0.68;;
48791;SDS011;34587;48.816;9.420;2023-03-12T14:44:53;3.33;;;1.53;;
48791;SDS011;34587;48.816;9.420;2023-03-12T14:47:47;0.57;;;0.57;;
48791;SDS011;34587;48.816;9.420;2023-03-12T14:50:24;1.13;;;1.05;;
48791;SDS011;34587;48.816;9.420;2023-03-12T14:52:54;3.13;;;0.80;;
48791;SDS011;34587;48.816;9.420;2023-03-12T14:55:34;0.50;;;0.50;;
48791;SDS011;34587;48.816;9.420;2023-03-12T14:58:03;0.40;;;0.40;;
48791;SDS011;34587;48.816;9.420;2023-03-12T15:00:30;0.50;;;0.50;;
48791;SDS011;34587;48.816;9.420;2023-03-12T15:02:56;0.63;;;0.63;;
48791;SDS011;34587;48.816;9.420;2023-03-12T15:05:26;0.50;;;0.50;;
48791;SDS011;34587;48.816;9.420;2023-03-12T15:07:51;2.28;;;0.63;;
48791;SDS011;34587;48.816;9.420;2023-03-12T15:10:25;3.65;;;2.22;;
48791;SDS011;34587;48.816;9.420;2023-03-12T15:12:53;1.40;;;1.10;;
48791;SDS011;34587;48.816;9.420;2023-03-12T15:15:28;0.88;;;0.88;;
48791;SDS011;34587;48.816;9.420;2023-03-12T15:18:12;1.63;;;1.52;;
48791;SDS011;34587;48.816;9.420;2023-03-12T15:20:41;0.65;;;0.65;;
48791;SDS011;34587;48.816;9.420;2023-03-12T15:23:08;1.63;;;1.17;;
48791;SDS011;34587;48.816;9.420;2023-03-12T15:25:36;0.50;;;0.50;;
48791;SDS011;34587;48.816;9.420;2023-03-12T15:28:07;4.07;;;1.95;;
48791;SDS011;34587;48.816;9.420;2023-03-12T15:30:36;1.20;;;1.10;;
48791;SDS011;34587;48.816;9.420;2023-03-12T15:33:07;0.60;;;0.57;;
48791;SDS011;34587;48.816;9.420;2023-03-12T15:35:40;1.08;;;0.98;;
48791;SDS011;34587;48.816;9.420;2023-03-12T15:38:24;0.90;;;0.88;;
48791;SDS011;34587;48.816;9.420;2023-03-12T15:40:50;0.95;;;0.95;;
48791;SDS011;34587;48.816;9.420;2023-03-12T15:43:18;0.70;;;0.70;;
48791;SDS011;34587;48.816;9.420;2023-03-12T15:45:45;0.40;;;0.40;;
48791;SDS011;34587;48.816;9.420;2023-03-12T15:50:55;0.80;;;0.80;;
48791;SDS011;34587;48.816;9.420;2023-03-12T15:58:31;0.60;;;0.60;;
48791;SDS011;34587;48.816;9.420;2023-03-12T16:03:37;0.30;;;0.30;;
48791;SDS011;34587;48.816;9.420;2023-03-12T16:06:04;1.85;;;1.58;;
48791;SDS011;34587;48.816;9.420;2023-03-12T16:08:39;0.40;;;0.40;;
48791;SDS011;34587;48.816;9.420;2023-03-12T16:11:09;0.90;;;0.90;;
48791;SDS011;34587;48.816;9.420;2023-03-12T16:13:39;1.73;;;0.80;;
48791;SDS011;34587;48.816;9.420;2023-03-12T16:16:08;0.88;;;0.88;;
48791;SDS011;34587;48.816;9.420;2023-03-12T16:18:35;2.47;;;0.77;;
48791;SDS011;34587;48.816;9.420;2023-03-12T16:21:01;0.43;;;0.43;;
48791;SDS011;34587;48.816;9.420;2023-03-12T16:23:26;0.30;;;0.30;;
48791;SDS011;34587;48.816;9.420;2023-03-12T16:25:52;0.52;;;0.52;;
48791;SDS011;34587;48.816;9.420;2023-03-12T16:28:20;1.75;;;0.82;;
48791;SDS011;34587;48.816;9.420;2023-03-12T16:30:46;0.95;;;0.95;;
48791;SDS011;34587;48.816;9.420;2023-03-12T16:33:13;0.47;;;0.47;;
48791;SDS011;34587;48.816;9.420;2023-03-12T16:35:40;2.20;;;1.13;;
48791;SDS011;34587;48.816;9.420;2023-03-12T16:38:06;0.77;;;0.77;;
48791;SDS011;34587;48.816;9.420;2023-03-12T16:40:32;0.40;;;0.40;;
48791;SDS011;34587;48.816;9.420;2023-03-12T16:43:00;0.40;;;0.40;;
48791;SDS011;34587;48.816;9.420;2023-03-12T16:45:29;1.27;;;0.50;;
48791;SDS011;34587;48.816;9.420;2023-03-12T16:47:58;0.93;;;0.60;;
48791;SDS011;34587;48.816;9.420;2023-03-12T16:50:24;0.55;;;0.50;;
48791;SDS011;34587;48.816;9.420;2023-03-12T16:52:50;0.38;;;0.38;;
48791;SDS011;34587;48.816;9.420;2023-03-12T16:55:19;0.30;;;0.30;;
48791;SDS011;34587;48.816;9.420;2023-03-12T16:57:48;0.30;;;0.30;;
48791;SDS011;34587;48.816;9.420;2023-03-12T17:00:20;1.55;;;0.68;;
48791;SDS011;34587;48.816;9.420;2023-03-12T17:02:47;0.80;;;0.47;;
48791;SDS011;34587;48.816;9.420;2023-03-12T17:05:14;0.30;;;0.30;;
48791;SDS011;34587;48.816;9.420;2023-03-12T17:07:39;0.63;;;0.63;;
48791;SDS011;34587;48.816;9.420;2023-03-12T17:10:05;0.75;;;0.75;;
48791;SDS011;34587;48.816;9.420;2023-03-12T17:12:33;5.82;;;1.95;;
48791;SDS011;34587;48.816;9.420;2023-03-12T17:15:02;0.60;;;0.60;;
48791;SDS011;34587;48.816;9.420;2023-03-12T17:19:56;0.70;;;0.70;;
48791;SDS011;34587;48.816;9.420;2023-03-12T17:22:24;0.70;;;0.70;;
48791;SDS011;34587;48.816;9.420;2023-03-12T17:24:51;0.60;;;0.60;;
48791;SDS011;34587;48.816;9.420;2023-03-12T17:27:16;0.40;;;0.40;;
48791;SDS011;34587;48.816;9.420;2023-03-12T17:29:42;8.82;;;2.13;;
48791;SDS011;34587;48.816;9.420;2023-03-12T17:32:07;2.55;;;1.67;;
48791;SDS011;34587;48.816;9.420;2023-03-12T17:34:33;3.38;;;1.17;;
48791;SDS011;34587;48.816;9.420;2023-03-12T17:36:58;2.22;;;2.00;;
48791;SDS011;34587;48.816;9.420;2023-03-12T17:39:24;2.55;;;1.90;;
48791;SDS011;34587;48.816;9.420;2023-03-12T17:41:50;2.58;;;1.65;;
48791;SDS011;34587;48.816;9.420;2023-03-12T17:44:15;2.80;;;1.67;;
48791;SDS011;34587;48.816;9.420;2023-03-12T17:46:41;2.35;;;1.20;;
48791;SDS011;34587;48.816;9.420;2023-03-12T17:49:07;2.00;;;1.90;;
48791;SDS011;34587;48.816;9.420;2023-03-12T17:51:33;4.25;;;2.40;;
48791;SDS011;34587;48.816;9.420;2023-03-12T17:53:58;3.70;;;2.67;;
48791;SDS011;34587;48.816;9.420;2023-03-12T17:56:23;4.13;;;2.78;;
48791;SDS011;34587;48.816;9.420;2023-03-12T17:58:49;1.88;;;1.52;;
48791;SDS011;34587;48.816;9.420;2023-03-12T18:01:14;1.38;;;1.27;;
48791;SDS011;34587;48.816;9.420;2023-03-12T18:03:40;1.77;;;1.67;;
48791;SDS011;34587;48.816;9.420;2023-03-12T18:06:07;3.28;;;2.78;;
48791;SDS011;34587;48.816;9.420;2023-03-12T18:08:33;3.95;;;3.63;;
48791;SDS011;34587;48.816;9.420;2023-03-12T18:10:58;7.55;;;4.90;;
48791;SDS011;34587;48.816;9.420;2023-03-12T18:13:25;6.80;;;3.85;;
48791;SDS011;34587;48.816;9.420;2023-03-12T18:15:51;4.15;;;3.75;;
48791;SDS011;34587;48.816;9.420;2023-03-12T18:18:17;2.97;;;2.08;;
48791;SDS011;34587;48.816;9.420;2023-03-12T18:20:43;4.13;;;2.75;;
48791;SDS011;34587;48.816;9.420;2023-03-12T18:23:08;2.47;;;1.92;;
48791;SDS011;34587;48.816;9.420;2023-03-12T18:25:35;2.20;;;1.30;;
48791;SDS011;34587;48.816;9.420;2023-03-12T18:28:01;2.10;;;1.67;;
48791;SDS011;34587;48.816;9.420;2023-03-12T18:30:26;2.30;;;2.15;;
48791;SDS011;34587;48.816;9.420;2023-03-12T18:32:52;1.38;;;1.38;;
48791;SDS011;34587;48.816;9.420;2023-03-12T18:35:17;1.92;;;1.27;;
48791;SDS011;34587;48.816;9.420;2023-03-12T18:37:42;3.88;;;1.77;;
48791;SDS011;34587;48.816;9.420;2023-03-12T18:40:09;2.20;;;1.52;;
48791;SDS011;34587;48.816;9.420;2023-03-12T18:42:34;3.35;;;1.90;;
48791;SDS011;34587;48.816;9.420;2023-03-12T18:45:00;1.40;;;1.30;;
48791;SDS011;34587;48.816;9.420;2023-03-12T18:47:25;2.15;;;1.65;;
48791;SDS011;34587;48.816;9.420;2023-03-12T18:49:51;6.93;;;1.88;;
48791;SDS011;34587;48.816;9.420;2023-03-12T18:52:19;2.60;;;1.40;;
48791;SDS011;34587;48.816;9.420;2023-03-12T18:54:44;2.47;;;2.05;;
48791;SDS011;34587;48.816;9.420;2023-03-12T18:57:09;0.70;;;0.70;;
48791;SDS011;34587;48.816;9.420;2023-03-12T18:59:36;5.55;;;1.42;;
48791;SDS011;34587;48.816;9.420;2023-03-12T19:02:01;0.75;;;0.75;;
48791;SDS011;34587;48.816;9.420;2023-03-12T19:04:27;1.65;;;1.27;;
48791;SDS011;34587;48.816;9.420;2023-03-12T19:06:52;0.82;;;0.82;;
48791;SDS011;34587;48.816;9.420;2023-03-12T19:09:18;6.75;;;1.75;;
48791;SDS011;34587;48.816;9.420;2023-03-12T19:11:45;1.48;;;1.15;;
48791;SDS011;34587;48.816;9.420;2023-03-12T19:14:11;2.50;;;0.68;;
48791;SDS011;34587;48.816;9.420;2023-03-12T19:16:37;0.70;;;0.70;;
48791;SDS011;34587;48.816;9.420;2023-03-12T19:19:02;0.43;;;0.43;;
48791;SDS011;34587;48.816;9.420;2023-03-12T19:21:27;3.22;;;0.68;;
48791;SDS011;34587;48.816;9.420;2023-03-12T19:23:52;1.20;;;1.10;;
48791;SDS011;34587;48.816;9.420;2023-03-12T19:26:18;0.50;;;0.50;;
48791;SDS011;34587;48.816;9.420;2023-03-12T19:28:43;0.82;;;0.82;;
48791;SDS011;34587;48.816;9.420;2023-03-12T19:31:10;3.05;;;1.55;;
48791;SDS011;34587;48.816;9.420;2023-03-12T19:33:38;1.25;;;1.25;;
48791;SDS011;34587;48.816;9.420;2023-03-12T19:36:04;1.15;;;1.15;;
48791;SDS011;34587;48.816;9.420;2023-03-12T19:38:30;0.73;;;0.73;;
48791;SDS011;34587;48.816;9.420;2023-03-12T19:40:56;1.20;;;0.77;;
48791;SDS011;34587;48.816;9.420;2023-03-12T19:43:22;2.38;;;1.38;;
48791;SDS011;34587;48.816;9.420;2023-03-12T19:45:49;2.47;;;2.28;;
48791;SDS011;34587;48.816;9.420;2023-03-12T19:48:14;3.47;;;0.90;;
48791;SDS011;34587;48.816;9.420;2023-03-12T19:50:40;2.15;;;0.55;;
48791;SDS011;34587;48.816;9.420;2023-03-12T19:53:06;1.27;;;1.20;;
48791;SDS011;34587;48.816;9.420;2023-03-12T19:55:32;0.75;;;0.65;;
48791;SDS011;34587;48.816;9.420;2023-03-12T19:57:57;1.10;;;0.63;;
48791;SDS011;34587;48.816;9.420;2023-03-12T20:00:23;5.18;;;1.58;;
48791;SDS011;34587;48.816;9.420;2023-03-12T20:02:49;6.78;;;0.88;;
48791;SDS011;34587;48.816;9.420;2023-03-12T20:05:14;8.50;;;2.75;;
48791;SDS011;34587;48.816;9.420;2023-03-12T20:07:40;3.83;;;1.10;;
48791;SDS011;34587;48.816;9.420;2023-03-12T20:10:05;0.65;;;0.65;;
48791;SDS011;34587;48.816;9.420;2023-03-12T20:12:33;2.40;;;1.27;;
48791;SDS011;34587;48.816;9.420;2023-03-12T20:14:59;0.93;;;0.93;;
48791;SDS011;34587;48.816;9.420;2023-03-12T20:17:24;0.98;;;0.98;;
48791;SDS011;34587;48.816;9.420;2023-03-12T20:19:50;3.85;;;1.60;;
48791;SDS011;34587;48.816;9.420;2023-03-12T20:22:15;0.82;;;0.82;;
48791;SDS011;34587;48.816;9.420;2023-03-12T20:24:40;0.63;;;0.63;;
48791;SDS011;34587;48.816;9.420;2023-03-12T20:27:05;0.65;;;0.65;;
48791;SDS011;34587;48.816;9.420;2023-03-12T20:29:31;1.80;;;1.70;;
48791;SDS011;34587;48.816;9.420;2023-03-12T20:31:57;0.73;;;0.60;;
48791;SDS011;34587;48.816;9.420;2023-03-12T20:34:22;0.43;;;0.43;;
48791;SDS011;34587;48.816;9.420;2023-03-12T20:36:47;0.73;;;0.73;;
48791;SDS011;34587;48.816;9.420;2023-03-12T20:39:13;0.63;;;0.63;;
48791;SDS011;34587;48.816;9.420;2023-03-12T20:41:38;0.77;;;0.77;;
48791;SDS011;34587;48.816;9.420;2023-03-12T20:44:03;1.73;;;0.93;;
48791;SDS011;34587;48.816;9.420;2023-03-12T20:46:28;1.63;;;1.25;;
48791;SDS011;34587;48.816;9.420;2023-03-12T20:48:54;0.60;;;0.60;;
48791;SDS011;34587;48.816;9.420;2023-03-12T20:51:19;4.50;;;1.10;;
48791;SDS011;34587;48.816;9.420;2023-03-12T20:53:44;9.63;;;1.23;;
48791;SDS011;34587;48.816;9.420;2023-03-12T20:56:11;1.45;;;1.15;;
48791;SDS011;34587;48.816;9.420;2023-03-12T20:58:37;0.55;;;0.55;;
48791;SDS011;34587;48.816;9.420;2023-03-12T21:01:03;0.70;;;0.70;;
48791;SDS011;34587;48.816;9.420;2023-03-12T21:03:29;1.02;;;0.93;;
48791;SDS011;34587;48.816;9.420;2023-03-12T21:05:56;0.85;;;0.85;;
48791;SDS011;34587;48.816;9.420;2023-03-12T21:08:23;3.67;;;3.22;;
48791;SDS011;34587;48.816;9.420;2023-03-12T21:10:49;8.45;;;2.97;;
48791;SDS011;34587;48.816;9.420;2023-03-12T21:13:16;4.10;;;1.70;;
48791;SDS011;34587;48.816;9.420;2023-03-12T21:15:45;7.78;;;2.83;;
48791;SDS011;34587;48.816;9.420;2023-03-12T21:18:11;0.65;;;0.65;;
48791;SDS011;34587;48.816;9.420;2023-03-12T21:20:37;0.85;;;0.85;;
48791;SDS011;34587;48.816;9.420;2023-03-12T21:23:04;1.02;;;0.90;;